Time;durP1;ratioP1;P1;durP2;ratioP2;P2;SDS_P1;SDS_P2;PMS_P1;PMS_P2;Temp;Humidity;BMP_temperature;BMP_pressure;BME280_temperature;BME280_humidity;BME280_pressure;Samples;Min_cycle;Max_cycle;Signal;HPM_P1;HPM_P2
2021/06/05 00:00:59;;;;;;;0.20;0.20;;;;;;;14.85;79.85;101449.91;5066249;28;20057;-90
2021/06/05 00:04:18;;;;;;;0.35;0.30;;;;;;;14.86;79.70;101440.59;5063934;28;20509;-89
2021/06/05 00:06:47;;;;;;;0.20;0.20;;;;;;;14.92;79.14;101442.16;5053039;28;20052;-91
2021/06/05 00:09:17;;;;;;;0.30;0.30;;;;;;;14.61;79.61;101398.63;5052021;28;20048;-90
2021/06/05 00:11:45;;;;;;;0.20;0.20;;;;;;;14.53;81.06;101406.63;5031771;28;20099;-89
2021/06/05 00:15:20;;;;;;;0.17;0.15;;;;;;;14.73;80.18;101444.00;5036934;28;20049;-89
2021/06/05 00:22:13;;;;;;;0.47;0.30;;;;;;;14.49;79.66;101398.19;5069288;28;20040;-91
2021/06/05 00:25:33;;;;;;;0.43;0.20;;;;;;;14.75;79.38;101439.06;5051680;28;20128;-91
2021/06/05 00:28:33;;;;;;;0.20;0.20;;;;;;;14.69;79.40;101440.22;5041600;28;20045;-90
2021/06/05 00:31:03;;;;;;;0.20;0.20;;;;;;;14.38;79.58;101410.34;5044966;28;20049;-90
2021/06/05 00:34:26;;;;;;;0.20;0.20;;;;;;;14.58;79.82;101442.19;5040303;28;20642;-90
2021/06/05 00:36:56;;;;;;;0.20;0.20;;;;;;;14.44;79.09;101420.13;5031642;28;20041;-91
2021/06/05 00:39:24;;;;;;;0.20;0.20;;;;;;;14.62;79.00;101443.25;5031557;28;20050;-90
2021/06/05 00:42:56;;;;;;;0.20;0.20;;;;;;;14.49;79.78;101439.28;5052317;28;20049;-90
2021/06/05 00:49:52;;;;;;;0.45;0.20;;;;;;;14.41;79.68;101426.19;5039914;28;20032;-90
2021/06/05 00:52:23;;;;;;;0.20;0.20;;;;;;;14.19;80.12;101405.56;5063164;28;20055;-90
2021/06/05 00:54:55;;;;;;;0.30;0.30;;;;;;;14.39;79.70;101439.34;5050886;28;20540;-91
2021/06/05 00:57:42;;;;;;;0.20;0.20;;;;;;;14.03;80.51;101404.03;5048884;28;21144;-90
2021/06/05 01:00:17;;;;;;;0.28;0.28;;;;;;;14.32;80.92;101445.16;5048106;28;20049;-91
2021/06/05 01:02:45;;;;;;;0.30;0.30;;;;;;;14.28;80.77;101433.16;5054839;28;20049;-90
2021/06/05 01:06:17;;;;;;;0.22;0.22;;;;;;;14.28;80.31;101439.44;5044464;28;20414;-91
2021/06/05 01:08:56;;;;;;;0.20;0.20;;;;;;;14.05;80.00;101388.16;5030879;28;20045;-91
2021/06/05 01:11:41;;;;;;;0.20;0.20;;;;;;;14.15;79.63;101404.50;5030754;28;20049;-91
2021/06/05 01:14:17;;;;;;;0.22;0.22;;;;;;;14.27;79.29;101424.09;5036258;28;20048;-90
2021/06/05 01:16:48;;;;;;;0.20;0.20;;;;;;;14.00;79.49;101383.53;5048256;28;20485;-90
2021/06/05 01:19:50;;;;;;;0.32;0.20;;;;;;;14.15;79.50;101409.97;5051931;28;20048;-91
2021/06/05 01:26:18;;;;;;;0.30;0.30;;;;;;;14.05;79.56;101401.84;5031758;28;20053;-90
2021/06/05 01:29:13;;;;;;;0.20;0.20;;;;;;;14.19;80.59;101434.88;5042801;28;20056;-90
2021/06/05 01:32:00;;;;;;;0.20;0.20;;;;;;;14.04;80.86;101416.63;5051496;28;20547;-90
2021/06/05 01:35:29;;;;;;;0.17;0.17;;;;;;;14.07;80.08;101429.75;5046796;28;20052;-90
2021/06/05 01:38:02;;;;;;;0.20;0.20;;;;;;;13.86;80.72;101410.72;5040621;28;20057;-90
2021/06/05 01:40:31;;;;;;;0.20;0.20;;;;;;;13.91;80.84;101412.63;5039125;28;20041;-90
2021/06/05 01:43:03;;;;;;;0.20;0.20;;;;;;;13.67;80.78;101382.41;5059712;28;20068;-89
2021/06/05 01:45:40;;;;;;;0.20;0.20;;;;;;;13.70;80.61;101390.88;5046099;28;20053;-90
2021/06/05 01:48:10;;;;;;;0.20;0.20;;;;;;;13.98;80.95;101437.75;5058819;28;20480;-91
2021/06/05 01:51:31;;;;;;;0.20;0.20;;;;;;;13.97;80.58;101436.09;5074287;28;20052;-89
2021/06/05 01:54:07;;;;;;;0.28;0.20;;;;;;;13.56;80.58;101371.56;5039334;28;20056;-90
2021/06/05 01:56:41;;;;;;;0.30;0.30;;;;;;;13.83;80.41;101421.44;5043330;28;20049;-90
2021/06/05 02:00:20;;;;;;;0.20;0.20;;;;;;;13.94;80.87;101442.16;5065433;28;20056;-90
2021/06/05 02:02:57;;;;;;;0.57;0.30;;;;;;;13.82;80.08;101417.88;5067673;28;20064;-90
2021/06/05 02:05:44;;;;;;;0.20;0.20;;;;;;;13.84;80.82;101432.09;5058342;28;20053;-90
2021/06/05 02:08:20;;;;;;;0.30;0.30;;;;;;;13.77;80.08;101423.41;5052424;28;20386;-90
2021/06/05 02:10:50;;;;;;;0.30;0.30;;;;;;;13.42;80.20;101367.78;5044021;28;20068;-90
2021/06/05 02:13:23;;;;;;;0.20;0.20;;;;;;;13.88;79.79;101432.31;5036989;28;20513;-92
2021/06/05 02:20:30;;;;;;;0.30;0.30;;;;;;;13.50;79.70;101374.59;5056843;28;20036;-89
2021/06/05 02:23:07;;;;;;;0.43;0.35;;;;;;;13.77;79.52;101416.00;5050253;28;20050;-89
2021/06/05 02:25:43;;;;;;;0.43;0.30;;;;;;;13.89;79.55;101433.97;5056709;28;20056;-89
2021/06/05 02:28:14;;;;;;;0.22;0.22;;;;;;;13.54;78.74;101389.34;5050947;28;20065;-90
2021/06/05 02:30:44;;;;;;;1.20;0.20;;;;;;;13.60;79.73;101407.34;5057734;28;20804;-91
2021/06/05 02:33:13;;;;;;;0.30;0.30;;;;;;;13.86;79.22;101442.75;5071968;28;20049;-90
2021/06/05 02:35:48;;;;;;;0.32;0.32;;;;;;;13.66;79.60;101411.69;5072085;28;20048;-90
2021/06/05 02:38:59;;;;;;;0.25;0.25;;;;;;;13.84;79.57;101425.81;5035041;28;20507;-89
2021/06/05 02:42:24;;;;;;;0.20;0.20;;;;;;;13.83;79.66;101438.66;5062433;28;20060;-90
2021/06/05 02:44:56;;;;;;;0.30;0.30;;;;;;;13.67;79.27;101416.06;5059450;28;20041;-90
2021/06/05 02:47:26;;;;;;;0.25;0.25;;;;;;;13.40;79.40;101378.22;5065862;28;20048;-91
2021/06/05 02:50:01;;;;;;;0.20;0.20;;;;;;;13.68;79.39;101419.59;5067098;28;20040;-90
2021/06/05 02:53:00;;;;;;;0.30;0.30;;;;;;;13.80;79.98;101432.97;5032435;28;20045;-89
2021/06/05 03:03:39;;;;;;;0.20;0.20;;;;;;;13.59;79.16;101413.94;5039351;28;20056;-89
2021/06/05 03:06:23;;;;;;;0.20;0.20;;;;;;;13.70;79.19;101433.81;5073155;28;20396;-90
2021/06/05 03:09:47;;;;;;;0.35;0.35;;;;;;;13.77;79.23;101448.81;5062725;28;20049;-91
2021/06/05 03:12:15;;;;;;;0.22;0.22;;;;;;;13.71;79.69;101441.75;5072711;28;20044;-90
2021/06/05 03:14:43;;;;;;;0.30;0.30;;;;;;;13.53;79.22;101401.38;5072727;28;20523;-91
2021/06/05 03:17:12;;;;;;;0.47;0.20;;;;;;;13.36;79.19;101386.13;5053420;28;20070;-91
2021/06/05 03:19:47;;;;;;;0.20;0.20;;;;;;;13.51;78.72;101411.78;5048988;28;20041;-90
2021/06/05 03:23:10;;;;;;;0.30;0.30;;;;;;;13.69;79.60;101449.41;5049169;28;20049;-90
2021/06/05 03:25:39;;;;;;;0.20;0.20;;;;;;;13.58;79.36;101429.50;5032895;28;20052;-89
2021/06/05 03:28:10;;;;;;;0.22;0.22;;;;;;;13.70;79.10;101433.81;5059345;28;20055;-90
2021/06/05 03:30:39;;;;;;;0.20;0.20;;;;;;;13.56;79.15;101419.94;5045935;28;20053;-91
2021/06/05 03:33:09;;;;;;;0.70;0.20;;;;;;;13.77;78.90;101440.63;5059801;28;20053;-88
2021/06/05 03:35:39;;;;;;;0.55;0.20;;;;;;;13.33;79.07;101380.41;5057412;28;20516;-92
2021/06/05 03:38:10;;;;;;;0.55;0.30;;;;;;;13.75;78.86;101442.00;5072892;28;20059;-91
2021/06/05 03:40:40;;;;;;;0.20;0.20;;;;;;;13.48;79.43;101396.75;5066440;28;20046;-91
2021/06/05 03:43:10;;;;;;;0.20;0.20;;;;;;;13.55;79.44;101430.06;5057404;28;20040;-92
2021/06/05 03:45:43;;;;;;;0.30;0.30;;;;;;;13.51;79.80;101420.00;5060121;28;20061;-90
2021/06/05 03:48:14;;;;;;;0.32;0.30;;;;;;;13.54;79.45;101424.88;5069076;28;20052;-90
2021/06/05 03:50:47;;;;;;;0.20;0.20;;;;;;;13.25;80.07;101385.34;5041493;28;20064;-91
2021/06/05 03:53:19;;;;;;;0.30;0.30;;;;;;;13.54;79.61;101430.34;5037578;28;20046;-90
2021/06/05 03:55:59;;;;;;;0.22;0.22;;;;;;;13.36;79.04;101397.06;5057943;28;20049;-91
2021/06/05 03:58:37;;;;;;;0.20;0.20;;;;;;;13.61;80.17;101437.13;5032183;28;20414;-90
2021/06/05 04:01:37;;;;;;;0.30;0.30;;;;;;;13.59;80.02;101433.88;5045751;28;20049;-91
2021/06/05 04:04:06;;;;;;;0.22;0.22;;;;;;;13.37;79.88;101403.38;5060369;28;20063;-91
2021/06/05 04:06:35;;;;;;;0.20;0.20;;;;;;;13.27;80.46;101393.25;5039006;28;20060;-92
2021/06/05 04:10:10;;;;;;;0.30;0.30;;;;;;;13.52;80.65;101433.38;5033659;28;20685;-91
2021/06/05 04:12:39;;;;;;;0.30;0.30;;;;;;;13.24;80.96;101397.38;5061818;28;20054;-91
2021/06/05 04:15:09;;;;;;;0.20;0.20;;;;;;;12.92;80.42;101349.41;5064615;28;20051;-91
2021/06/05 04:17:37;;;;;;;0.55;0.30;;;;;;;13.17;81.04;101377.72;5037298;28;20049;-92
2021/06/05 04:20:08;;;;;;;0.47;0.30;;;;;;;13.38;80.92;101424.97;5039348;28;20057;-91
2021/06/05 04:22:37;;;;;;;0.30;0.30;;;;;;;13.37;80.62;101417.84;5031886;28;20053;-91
2021/06/05 04:29:18;;;;;;;0.25;0.25;;;;;;;13.38;80.03;101405.00;5049841;28;20044;-91
2021/06/05 04:31:46;;;;;;;0.20;0.20;;;;;;;13.49;80.97;101435.84;5035921;28;20053;-91
2021/06/05 04:34:42;;;;;;;0.30;0.30;;;;;;;13.50;80.72;101440.22;5067228;28;20048;-92
2021/06/05 04:37:10;;;;;;;0.30;0.30;;;;;;;13.44;80.57;101417.56;5037833;28;20394;-91
2021/06/05 04:39:40;;;;;;;0.30;0.30;;;;;;;13.42;81.42;101408.81;5032203;28;20049;-91
2021/06/05 04:42:09;;;;;;;0.20;0.20;;;;;;;13.49;81.01;101414.81;5046449;28;20087;-91
2021/06/05 04:44:37;;;;;;;0.40;0.40;;;;;;;13.56;81.31;101431.72;5037937;28;20053;-90
2021/06/05 04:47:05;;;;;;;1.17;0.40;;;;;;;13.34;80.86;101374.66;5046073;28;20401;-92
2021/06/05 04:50:00;;;;;;;0.30;0.30;;;;;;;13.91;80.34;101451.75;5060842;28;20049;-91
2021/06/05 04:56:54;;;;;;;0.45;0.40;;;;;;;13.83;79.05;101364.00;5066275;28;20043;-88
2021/06/05 05:03:49;;;;;;;0.30;0.30;;;;;;;14.62;78.30;101433.16;5056204;28;20047;-90
2021/06/05 05:07:12;;;;;;;0.30;0.30;;;;;;;14.86;79.62;101432.38;5053687;28;20402;-91
2021/06/05 05:09:40;;;;;;;0.30;0.30;;;;;;;16.26;72.95;101360.75;5032034;28;20697;-89
2021/06/05 05:12:11;;;;;;;0.30;0.30;;;;;;;17.70;69.12;101362.50;5034615;28;20053;-93
2021/06/05 05:15:32;;;;;;;0.25;0.25;;;;;;;19.64;64.67;101415.47;5061566;28;20508;-90
2021/06/05 05:23:17;;;;;;;0.30;0.30;;;;;;;22.55;54.44;101406.22;5060039;28;20036;-90
2021/06/05 05:30:16;;;;;;;0.20;0.20;;;;;;;21.73;53.92;101363.31;5044793;28;20040;-92
2021/06/05 05:32:44;;;;;;;0.20;0.20;;;;;;;22.48;53.77;101361.56;5051597;28;20416;-89
2021/06/05 05:35:13;;;;;;;0.30;0.30;;;;;;;23.14;49.49;101376.41;5054979;28;20052;-89
2021/06/05 05:37:41;;;;;;;0.30;0.30;;;;;;;23.27;51.60;101352.22;5058085;28;20048;-90
2021/06/05 05:40:11;;;;;;;0.20;0.20;;;;;;;22.68;50.44;101343.22;5058226;28;20524;-90
2021/06/05 05:43:05;;;;;;;0.10;0.10;;;;;;;21.95;53.77;101405.66;5040738;28;20056;-89
2021/06/05 05:46:28;;;;;;;0.10;0.10;;;;;;;21.28;55.93;101413.81;5046193;28;20756;-88
2021/06/05 05:54:11;;;;;;;0.13;0.13;;;;;;;20.10;60.10;101426.22;5043386;28;20036;-93
2021/06/05 05:56:40;;;;;;;0.10;0.10;;;;;;;20.26;59.39;101385.06;5049078;28;20043;-89
2021/06/05 05:59:08;;;;;;;0.20;0.20;;;;;;;19.86;59.94;101416.50;5051913;28;20528;-89
2021/06/05 06:01:39;;;;;;;0.10;0.10;;;;;;;19.40;61.13;101396.59;5043179;28;20041;-89
2021/06/05 06:04:07;;;;;;;0.15;0.15;;;;;;;19.23;58.76;101372.56;5040899;28;20497;-89
2021/06/05 06:07:01;;;;;;;0.30;0.17;;;;;;;19.26;62.83;101435.38;5039591;28;21120;-91
2021/06/05 06:09:40;;;;;;;0.43;0.30;;;;;;;18.97;64.66;101395.34;5058412;28;20052;-89
2021/06/05 06:13:17;;;;;;;0.32;0.30;;;;;;;19.26;64.38;101440.09;5059670;28;20490;-90
2021/06/05 06:24:20;;;;;;;0.20;0.20;;;;;;;19.00;62.37;101400.25;5047617;28;20044;-90
2021/06/05 06:26:47;;;;;;;0.20;0.20;;;;;;;19.26;61.06;101413.28;5044080;28;20044;-88
2021/06/05 06:29:17;;;;;;;0.20;0.20;;;;;;;19.50;63.70;101417.56;5067621;28;20059;-90
2021/06/05 06:31:47;;;;;;;0.25;0.22;;;;;;;19.28;65.59;101410.22;5039209;28;20045;-89
2021/06/05 06:38:28;;;;;;;0.17;0.17;;;;;;;19.56;64.45;101424.56;5074946;28;20538;-88
2021/06/05 06:41:07;;;;;;;0.20;0.20;;;;;;;19.66;62.14;101415.16;5066793;28;20052;-87
2021/06/05 06:44:08;;;;;;;0.40;0.20;;;;;;;19.56;60.69;101421.00;5052066;28;20417;-90
2021/06/05 06:46:43;;;;;;;0.35;0.20;;;;;;;19.73;60.13;101407.19;5053303;28;20049;-86
2021/06/05 06:49:12;;;;;;;0.15;0.15;;;;;;;19.67;59.55;101380.88;5051019;28;20049;-93
2021/06/05 06:51:41;;;;;;;0.25;0.20;;;;;;;19.50;60.40;101324.53;5058387;28;20075;-92
2021/06/05 06:54:16;;;;;;;0.20;0.20;;;;;;;20.09;58.03;101417.09;5062738;28;20049;-88
2021/06/05 07:01:11;;;;;;;;;;;;;;;20.17;63.02;101413.53;5050794;28;20045;-86
2021/06/05 07:03:40;;;;;;;0.15;0.15;;;;;;;20.00;58.22;101377.66;5046850;28;20257;-88
2021/06/05 07:06:09;;;;;;;0.20;0.20;;;;;;;20.41;58.46;101406.66;5051778;28;20040;-86
2021/06/05 07:08:47;;;;;;;0.20;0.20;;;;;;;20.22;61.54;101396.78;5043709;28;20041;-87
2021/06/05 07:11:17;;;;;;;0.30;0.15;;;;;;;20.63;56.80;101418.63;5046819;28;20048;-86
2021/06/05 07:14:11;;;;;;;0.20;0.20;;;;;;;20.59;56.67;101418.50;5047839;28;20080;-86
2021/06/05 07:16:43;;;;;;;0.20;0.20;;;;;;;20.59;56.45;101387.25;5047641;28;20044;-85
2021/06/05 07:19:11;;;;;;;0.20;0.20;;;;;;;20.49;55.84;101385.66;5048317;28;20053;-85
2021/06/05 07:22:15;;;;;;;0.17;0.17;;;;;;;20.81;58.56;101414.69;5051334;28;20416;-86
2021/06/05 07:24:47;;;;;;;0.30;0.30;;;;;;;20.91;56.56;101402.44;5052340;28;20045;-87
2021/06/05 07:27:45;;;;;;;0.10;0.10;;;;;;;20.93;59.19;101400.13;5043307;28;20056;-88
2021/06/05 07:30:51;;;;;;;0.17;0.17;;;;;;;21.09;56.63;101399.56;5057444;28;20056;-87
2021/06/05 07:33:25;;;;;;;0.20;0.20;;;;;;;21.18;60.15;101401.13;5048552;28;20054;-88
2021/06/05 07:36:06;;;;;;;0.20;0.20;;;;;;;20.94;58.02;101363.03;5042902;28;20901;-87
2021/06/05 07:38:38;;;;;;;0.30;0.20;;;;;;;21.06;58.28;101398.31;5063899;28;20049;-88
2021/06/05 07:41:07;;;;;;;0.10;0.10;;;;;;;21.17;55.27;101349.72;5041911;28;20107;-88
2021/06/05 07:44:26;;;;;;;0.38;0.20;;;;;;;21.54;55.14;101393.44;5067161;28;20048;-88
2021/06/05 07:46:57;;;;;;;0.30;0.20;;;;;;;21.29;56.73;101362.81;5048823;28;20068;-88
2021/06/05 07:49:29;;;;;;;0.20;0.10;;;;;;;21.46;55.00;101392.34;5050679;28;20709;-85
2021/06/05 07:52:05;;;;;;;0.50;0.20;;;;;;;21.69;56.21;101398.38;5053878;28;20049;-88
2021/06/05 07:54:34;;;;;;;0.20;0.20;;;;;;;21.52;55.56;101368.88;5050136;28;20056;-88
2021/06/05 07:57:05;;;;;;;2.05;0.20;;;;;;;21.85;56.83;101389.47;5047272;28;20061;-88
2021/06/05 07:59:35;;;;;;;0.30;0.20;;;;;;;21.64;54.47;101365.34;5052664;28;20497;-88
2021/06/05 08:02:10;;;;;;;0.28;0.20;;;;;;;21.87;54.18;101393.50;5049157;28;20049;-86
2021/06/05 08:04:44;;;;;;;0.10;0.10;;;;;;;21.90;57.60;101387.28;5053192;28;20860;-87
2021/06/05 08:07:12;;;;;;;0.13;0.13;;;;;;;22.25;55.92;101381.38;5048116;28;20140;-87
2021/06/05 08:09:43;;;;;;;0.20;0.20;;;;;;;22.09;55.88;101347.94;5052507;28;20057;-87
2021/06/05 08:12:18;;;;;;;0.38;0.20;;;;;;;22.32;54.82;101388.34;5049278;28;20052;-87
2021/06/05 08:14:48;;;;;;;0.20;0.20;;;;;;;22.44;55.82;101379.25;5054996;28;21231;-91
2021/06/05 08:18:14;;;;;;;0.52;0.20;;;;;;;22.41;53.10;101386.31;5050402;28;20053;-85
2021/06/05 08:20:46;;;;;;;0.10;0.10;;;;;;;22.37;50.05;101383.41;5050840;28;20058;-93
2021/06/05 08:23:35;;;;;;;0.22;0.10;;;;;;;22.36;51.37;101381.00;5049001;28;20046;-90
2021/06/05 08:26:05;;;;;;;0.20;0.20;;;;;;;22.29;50.77;101367.66;5053844;28;20059;-91
2021/06/05 08:32:17;;;;;;;0.50;0.20;;;;;;;22.37;51.01;101385.38;5055203;28;20416;-92
2021/06/05 08:34:45;;;;;;;0.20;0.20;;;;;;;22.18;52.49;101314.63;5059867;28;20045;-92
2021/06/05 08:37:15;;;;;;;0.25;0.22;;;;;;;22.31;49.41;101337.63;5056525;28;20047;-92
2021/06/05 08:39:43;;;;;;;0.10;0.10;;;;;;;22.56;49.95;101355.13;5058316;28;20065;-91
2021/06/05 08:42:34;;;;;;;0.20;0.20;;;;;;;22.22;47.03;101306.41;5040831;28;20049;-92
2021/06/05 08:45:04;;;;;;;0.20;0.20;;;;;;;22.68;50.96;101364.63;5044875;28;20053;-93
2021/06/05 08:47:35;;;;;;;0.20;0.20;;;;;;;22.65;49.36;101338.38;5044616;28;20044;-91
2021/06/05 08:50:05;;;;;;;0.28;0.20;;;;;;;22.56;47.61;101307.97;5074171;28;20051;-92
2021/06/05 08:52:39;;;;;;;0.20;0.20;;;;;;;22.55;50.04;101309.13;5039416;28;20053;-92
2021/06/05 08:55:13;;;;;;;0.40;0.22;;;;;;;22.89;50.04;101370.84;5036417;28;20497;-91
2021/06/05 08:57:45;;;;;;;0.20;0.20;;;;;;;22.71;53.29;101350.84;5057018;28;20058;-93
2021/06/05 09:00:18;;;;;;;0.10;0.10;;;;;;;22.49;51.73;101301.38;5042083;28;20413;-91
2021/06/05 09:02:49;;;;;;;0.20;0.20;;;;;;;22.68;47.14;101343.22;5054947;28;20068;-92
2021/06/05 09:05:27;;;;;;;0.17;0.17;;;;;;;22.71;50.30;101322.31;5057294;28;20057;-93
2021/06/05 09:08:08;;;;;;;0.20;0.20;;;;;;;22.94;50.99;101330.97;5055013;28;20638;-92
2021/06/05 09:10:41;;;;;;;0.47;0.20;;;;;;;23.35;45.66;101367.13;5054833;28;20420;-90
2021/06/05 09:13:30;;;;;;;0.20;0.20;;;;;;;23.40;48.32;101373.25;5048622;28;20413;-93
2021/06/05 09:20:33;;;;;;;0.15;0.15;;;;;;;23.36;46.86;101319.56;5046853;28;20044;-92
2021/06/05 09:23:02;;;;;;;0.10;0.10;;;;;;;23.34;46.98;101330.22;5035436;28;20060;-93
2021/06/05 09:25:41;;;;;;;0.20;0.20;;;;;;;23.43;48.98;101344.75;5035330;28;20092;-88
2021/06/05 09:28:16;;;;;;;0.10;0.10;;;;;;;23.21;46.12;101315.53;5036343;28;20474;-89
2021/06/05 09:31:16;;;;;;;0.10;0.10;;;;;;;23.65;50.02;101364.84;5046884;28;20049;-88
2021/06/05 09:38:24;;;;;;;0.20;0.20;;;;;;;23.75;50.16;101352.41;5047351;28;20052;-87
2021/06/05 09:41:06;;;;;;;0.10;0.10;;;;;;;23.87;48.52;101332.88;5039894;28;20049;-88
2021/06/05 09:44:12;;;;;;;0.10;0.10;;;;;;;23.78;47.64;101369.19;5051002;28;20056;-87
2021/06/05 09:46:52;;;;;;;0.45;0.20;;;;;;;23.74;49.08;101336.91;5044353;28;20072;-88
2021/06/05 09:49:53;;;;;;;0.20;0.20;;;;;;;23.88;47.70;101359.56;5046973;28;20045;-88
2021/06/05 09:52:48;;;;;;;0.40;0.10;;;;;;;24.00;45.51;101361.50;5047355;28;20516;-88
2021/06/05 09:55:34;;;;;;;0.10;0.10;;;;;;;23.76;50.97;101309.56;5055249;28;20056;-88
2021/06/05 09:58:09;;;;;;;0.20;0.20;;;;;;;23.98;45.38;101333.22;5052817;28;20060;-88
2021/06/05 10:00:43;;;;;;;0.10;0.10;;;;;;;24.24;50.25;101354.16;5047519;28;20452;-89
2021/06/05 10:03:27;;;;;;;0.20;0.20;;;;;;;24.26;47.37;101349.03;5038673;28;20052;-88
2021/06/05 10:06:58;;;;;;;0.20;0.20;;;;;;;24.34;49.11;101350.03;5055748;28;20045;-87
2021/06/05 10:10:18;;;;;;;0.10;0.10;;;;;;;24.33;46.55;101349.22;5044712;28;20045;-88
2021/06/05 10:13:51;;;;;;;0.47;0.20;;;;;;;24.44;47.64;101352.28;5040751;28;20421;-89
2021/06/05 10:16:23;;;;;;;0.20;0.20;;;;;;;24.52;45.55;101342.16;5047136;28;20474;-89
2021/06/05 10:19:06;;;;;;;1.10;0.20;;;;;;;24.60;49.21;101344.75;5040750;28;20041;-90
2021/06/05 10:25:45;;;;;;;0.10;0.10;;;;;;;24.79;47.01;101316.19;5042652;28;20049;-89
2021/06/05 10:28:43;;;;;;;0.45;0.20;;;;;;;24.93;48.26;101356.69;5036821;28;20485;-91
2021/06/05 10:31:43;;;;;;;0.10;0.10;;;;;;;24.83;48.31;101354.44;5051406;28;20080;-91
2021/06/05 10:38:05;;;;;;;0.20;0.20;;;;;;;24.38;47.00;101281.41;5056330;28;20424;-92
2021/06/05 10:40:35;;;;;;;0.13;0.13;;;;;;;24.59;46.10;101297.78;5030539;28;20382;-93
2021/06/05 10:43:33;;;;;;;0.17;0.17;;;;;;;24.99;48.05;101334.94;5039677;28;20052;-92
2021/06/05 10:46:18;;;;;;;0.70;0.30;;;;;;;24.73;47.89;101280.66;5034233;28;20500;-90
2021/06/05 10:48:51;;;;;;;0.32;0.20;;;;;;;24.76;44.71;101297.44;5042864;28;20044;-91
2021/06/05 10:51:23;;;;;;;0.20;0.20;;;;;;;24.90;43.15;101315.63;5060317;28;20397;-89
2021/06/05 10:54:01;;;;;;;0.50;0.10;;;;;;;24.82;46.57;101302.72;5052604;28;20060;-90
2021/06/05 11:00:59;;;;;;;0.10;0.10;;;;;;;24.96;45.86;101286.34;5047034;28;20044;-92
2021/06/05 11:08:29;;;;;;;0.20;0.20;;;;;;;25.21;43.19;101314.72;5058460;28;20497;-90
2021/06/05 11:11:27;;;;;;;0.20;0.20;;;;;;;25.06;48.06;101296.09;5040871;28;20406;-90
2021/06/05 11:13:55;;;;;;;0.20;0.20;;;;;;;25.17;45.52;101297.13;5053487;28;20057;-90
2021/06/05 11:17:05;;;;;;;0.10;0.10;;;;;;;25.32;45.57;101314.16;5049188;28;20045;-90
2021/06/05 11:19:42;;;;;;;0.20;0.20;;;;;;;25.45;41.83;101302.53;5036353;28;20042;-91
2021/06/05 11:23:05;;;;;;;0.30;0.20;;;;;;;25.37;49.86;101308.31;5044414;28;20041;-89
2021/06/05 11:25:41;;;;;;;0.20;0.20;;;;;;;25.12;40.58;101278.75;5055865;28;20045;-89
2021/06/05 11:28:49;;;;;;;0.20;0.15;;;;;;;25.00;45.08;101239.09;5057722;28;20057;-89
2021/06/05 11:31:43;;;;;;;0.20;0.20;;;;;;;25.15;42.56;101270.81;5051629;28;20052;-91
2021/06/05 11:34:41;;;;;;;0.20;0.20;;;;;;;25.13;41.80;101254.47;5054279;28;20044;-91
2021/06/05 11:38:01;;;;;;;0.20;0.20;;;;;;;25.41;42.57;101307.22;5025221;28;20441;-91
2021/06/05 11:41:07;;;;;;;0.10;0.10;;;;;;;25.54;45.29;101288.38;5047208;28;20409;-92
2021/06/05 11:43:49;;;;;;;0.20;0.10;;;;;;;25.37;43.12;101274.88;5038192;28;20052;-92
2021/06/05 11:46:44;;;;;;;0.10;0.10;;;;;;;25.02;44.83;101259.81;5036356;28;20049;-91
2021/06/05 11:49:49;;;;;;;0.10;0.10;;;;;;;25.42;44.92;101292.09;5025778;28;20049;-93
2021/06/05 11:52:47;;;;;;;0.20;0.20;;;;;;;25.61;46.23;101294.06;5049942;28;20048;-93
2021/06/05 11:55:41;;;;;;;0.17;0.10;;;;;;;25.44;43.45;101247.19;5040633;28;20068;-92
2021/06/05 11:59:03;;;;;;;0.10;0.10;;;;;;;25.71;44.07;101281.53;5042394;28;20050;-92
2021/06/05 12:02:32;;;;;;;0.20;0.20;;;;;;;25.82;45.33;101275.34;5037450;28;20056;-92
2021/06/05 12:05:07;;;;;;;0.32;0.20;;;;;;;25.74;42.60;101227.84;5038389;28;20512;-93
2021/06/05 12:11:32;;;;;;;0.20;0.20;;;;;;;25.95;43.60;101258.06;5037613;28;20056;-90
2021/06/05 12:14:14;;;;;;;0.10;0.10;;;;;;;25.99;45.12;101266.50;5051323;28;20060;-92
2021/06/05 12:17:01;;;;;;;0.35;0.20;;;;;;;26.12;43.63;101272.72;5044761;28;20045;-92
2021/06/05 12:19:35;;;;;;;0.10;0.10;;;;;;;25.99;40.20;101269.31;5047151;28;20056;-91
2021/06/05 12:22:15;;;;;;;0.10;0.10;;;;;;;25.65;41.57;101235.63;5048854;28;20478;-91
2021/06/05 12:24:47;;;;;;;0.20;0.20;;;;;;;25.51;41.32;101227.81;5043282;28;20065;-89
2021/06/05 12:27:28;;;;;;;0.10;0.10;;;;;;;25.77;45.77;101229.06;5042745;28;20067;-90
2021/06/05 12:30:15;;;;;;;0.10;0.10;;;;;;;25.29;41.54;101185.56;5042313;28;20053;-91
2021/06/05 12:32:55;;;;;;;0.10;0.10;;;;;;;25.75;43.13;101231.41;5038892;28;20056;-89
2021/06/05 12:35:29;;;;;;;0.20;0.20;;;;;;;25.93;42.72;101251.25;5042219;28;20046;-91
2021/06/05 12:38:14;;;;;;;0.50;0.30;;;;;;;25.96;41.26;101244.91;5051067;28;20045;-86
2021/06/05 12:40:45;;;;;;;0.20;0.20;;;;;;;25.91;42.64;101225.72;5041053;28;20041;-91
2021/06/05 12:43:20;;;;;;;0.17;0.17;;;;;;;25.90;43.88;101243.63;5047316;28;20409;-93
2021/06/05 12:49:31;;;;;;;0.20;0.20;;;;;;;25.35;41.36;101216.75;5044657;28;20057;-93
2021/06/05 12:52:29;;;;;;;0.30;0.10;;;;;;;25.56;41.90;101244.22;5039078;28;20052;-91
2021/06/05 12:55:40;;;;;;;0.90;0.20;;;;;;;25.39;41.35;101245.47;5045119;28;20060;-91
2021/06/05 12:58:29;;;;;;;0.10;0.10;;;;;;;25.16;42.55;101225.09;5039680;28;20516;-92
2021/06/05 13:00:59;;;;;;;0.10;0.10;;;;;;;24.67;43.64;101181.94;5039604;28;20045;-92
2021/06/05 13:07:10;;;;;;;0.20;0.20;;;;;;;24.58;46.13;101226.59;5044694;28;20056;-92
2021/06/05 13:09:41;;;;;;;0.20;0.20;;;;;;;24.35;45.97;101193.91;5049412;28;20050;-91
2021/06/05 13:12:28;;;;;;;0.50;0.20;;;;;;;24.93;47.79;101225.84;5051648;28;20033;-92
2021/06/05 13:15:11;;;;;;;0.10;0.10;;;;;;;25.29;44.32;101213.44;5049388;28;20079;-90
2021/06/05 13:17:53;;;;;;;0.10;0.10;;;;;;;25.41;41.99;101206.09;5040659;28;20053;-93
2021/06/05 13:20:29;;;;;;;0.13;0.13;;;;;;;25.59;43.61;101234.31;5041150;28;20054;-91
2021/06/05 13:27:11;;;;;;;0.43;0.20;;;;;;;25.88;40.79;101232.84;5049309;28;20059;-92
2021/06/05 13:29:42;;;;;;;0.28;0.10;;;;;;;26.03;43.64;101222.78;5041066;28;20068;-91
2021/06/05 13:32:14;;;;;;;0.10;0.10;;;;;;;25.93;43.26;101184.31;5037972;28;20038;-90
2021/06/05 13:39:11;;;;;;;0.20;0.20;;;;;;;25.98;42.07;101209.91;5048884;28;20045;-93
2021/06/05 13:41:40;;;;;;;0.25;0.20;;;;;;;26.03;43.74;101217.22;5040016;28;20041;-91
2021/06/05 13:44:59;;;;;;;0.17;0.17;;;;;;;25.91;39.73;101214.59;5041639;28;20056;-89
2021/06/05 13:48:00;;;;;;;0.17;0.10;;;;;;;25.93;41.12;101209.41;5048198;28;20084;-92
2021/06/05 13:50:31;;;;;;;0.10;0.10;;;;;;;25.90;43.38;101216.53;5038535;28;20431;-92
2021/06/05 13:53:09;;;;;;;0.20;0.20;;;;;;;25.62;45.31;101166.69;5056745;28;20056;-93
2021/06/05 13:55:45;;;;;;;0.10;0.10;;;;;;;25.96;48.72;101203.09;5049124;28;20065;-92
2021/06/05 13:58:14;;;;;;;0.10;0.10;;;;;;;25.93;43.29;101195.47;5043807;28;20049;-92
2021/06/05 14:01:10;;;;;;;0.13;0.13;;;;;;;25.92;41.52;101213.38;5050625;28;20307;-93
2021/06/05 14:03:40;;;;;;;0.20;0.20;;;;;;;25.69;42.10;101152.09;5046867;28;20394;-93
2021/06/05 14:06:08;;;;;;;0.10;0.10;;;;;;;25.88;39.74;101198.56;5047085;28;20413;-92
2021/06/05 14:08:36;;;;;;;0.10;0.10;;;;;;;25.74;45.62;101176.84;5053636;28;20404;-92
2021/06/05 14:11:04;;;;;;;0.10;0.10;;;;;;;25.58;40.71;101160.25;5049189;28;20060;-93
2021/06/05 14:13:37;;;;;;;0.20;0.20;;;;;;;25.68;44.09;101195.06;5044940;28;20049;-93
2021/06/05 14:16:18;;;;;;;0.20;0.20;;;;;;;25.70;43.05;101176.78;5043915;28;20061;-93
2021/06/05 14:18:48;;;;;;;0.10;0.10;;;;;;;25.78;42.58;101167.38;5048508;28;20053;-91
2021/06/05 14:21:22;;;;;;;0.10;0.10;;;;;;;26.04;40.51;101207.63;5038920;28;20511;-91
2021/06/05 14:31:53;;;;;;;0.20;0.20;;;;;;;25.38;43.36;101190.13;5054981;28;20060;-92
2021/06/05 14:34:25;;;;;;;0.20;0.20;;;;;;;25.24;43.55;101196.22;5049023;28;20044;-93
2021/06/05 14:41:08;;;;;;;0.10;0.10;;;;;;;25.32;42.46;101214.66;5046435;28;20049;-93
2021/06/05 14:43:38;;;;;;;0.35;0.28;;;;;;;25.35;44.65;101205.59;5051949;28;20049;-93